Time;durP1;ratioP1;P1;durP2;ratioP2;P2;SDS_P1;SDS_P2;PMS_P1;PMS_P2;Temp;Humidity;BMP_temperature;BMP_pressure;BME280_temperature;BME280_humidity;BME280_pressure;Samples;Min_cycle;Max_cycle;Signal;HPM_P1;HPM_P2
2022/11/01 00:01:42;;;;;;;7.75;3.22;;;;;;;-140.72;100.00;52853.53;5047644;28;20067;-73
2022/11/01 00:04:07;;;;;;;6.82;2.55;;;;;;;-140.72;100.00;52877.88;5058878;28;20083;-73
2022/11/01 00:06:34;;;;;;;6.40;4.15;;;;;;;-140.72;100.00;52804.81;5062758;28;20103;-75
2022/11/01 00:08:59;;;;;;;7.68;4.10;;;;;;;-140.72;100.00;52873.81;5051061;28;20037;-75
2022/11/01 00:11:25;;;;;;;6.60;4.10;;;;;;;-140.72;100.00;52853.53;5051119;28;20389;-76
2022/11/01 00:13:51;;;;;;;6.38;4.13;;;;;;;-140.72;100.00;52806.84;5050723;28;20036;-74
2022/11/01 00:16:18;;;;;;;5.63;3.83;;;;;;;-140.72;100.00;52829.19;5057829;28;20032;-74
2022/11/01 00:18:43;;;;;;;6.78;3.60;;;;;;;-140.72;100.00;52837.28;5060757;28;20117;-74
2022/11/01 00:21:10;;;;;;;4.18;3.47;;;;;;;-140.72;100.00;52796.72;5057317;28;20461;-77
2022/11/01 00:23:36;;;;;;;10.65;4.25;;;;;;;-140.72;100.00;52804.81;5063805;28;20040;-74
2022/11/01 00:26:03;;;;;;;10.43;3.20;;;;;;;-140.72;100.00;52853.53;5061036;28;20059;-74
2022/11/01 00:28:29;;;;;;;11.38;4.10;;;;;;;-140.72;100.00;52819.03;5051211;28;20070;-74
2022/11/01 00:30:56;;;;;;;3.92;2.90;;;;;;;-140.72;100.00;52837.28;5055799;28;20032;-74
2022/11/01 00:33:25;;;;;;;6.75;3.03;;;;;;;-140.72;100.00;52827.16;5059292;28;20096;-77
2022/11/01 00:35:51;;;;;;;6.90;3.58;;;;;;;-140.72;100.00;52835.25;5060603;28;20128;-73
2022/11/01 00:38:19;;;;;;;7.45;3.90;;;;;;;-140.72;100.00;52821.06;5059006;28;20123;-74
2022/11/01 00:40:45;;;;;;;7.97;3.53;;;;;;;-140.72;100.00;52817.00;5063515;28;20024;-73
2022/11/01 00:43:11;;;;;;;6.30;3.15;;;;;;;-140.72;100.00;52756.13;5056707;28;20078;-75
2022/11/01 00:45:37;;;;;;;7.95;3.95;;;;;;;-140.72;100.00;52835.25;5058314;28;20099;-76
2022/11/01 00:48:03;;;;;;;8.05;3.83;;;;;;;-140.72;100.00;52827.16;5058462;28;20047;-73
2022/11/01 00:50:28;;;;;;;5.13;3.63;;;;;;;-140.72;100.00;52829.19;5061475;28;20041;-74
2022/11/01 00:52:53;;;;;;;4.18;3.00;;;;;;;-140.72;100.00;52796.72;5059841;28;20102;-75
2022/11/01 00:55:19;;;;;;;8.27;3.55;;;;;;;-140.72;100.00;52853.53;5059795;28;20500;-73
2022/11/01 00:57:44;;;;;;;5.22;3.08;;;;;;;-140.72;100.00;52833.22;5037727;28;20036;-73
2022/11/01 01:00:11;;;;;;;4.10;2.67;;;;;;;-140.72;100.00;52762.22;5053466;28;20115;-73
2022/11/01 01:02:37;;;;;;;5.05;3.17;;;;;;;-140.72;100.00;52776.41;5056979;28;20449;-75
2022/11/01 01:05:04;;;;;;;7.80;3.92;;;;;;;-140.72;100.00;52796.72;5057274;28;20039;-74
2022/11/01 01:07:29;;;;;;;5.90;2.90;;;;;;;-140.72;100.00;52814.97;5056427;28;20032;-74
2022/11/01 01:09:55;;;;;;;6.43;3.00;;;;;;;-140.72;100.00;52827.16;5061094;28;20037;-76
2022/11/01 01:12:20;;;;;;;3.72;2.90;;;;;;;-140.72;100.00;52808.88;5052657;28;20516;-73
2022/11/01 01:14:46;;;;;;;4.95;3.55;;;;;;;-140.72;100.00;52798.72;5064758;28;20143;-75
2022/11/01 01:17:11;;;;;;;5.18;3.08;;;;;;;-140.72;100.00;52821.06;5061268;28;20087;-75
2022/11/01 01:19:37;;;;;;;5.10;3.20;;;;;;;-140.72;100.00;52764.25;5051809;28;20091;-74
2022/11/01 01:22:02;;;;;;;7.53;3.40;;;;;;;-140.72;100.00;52794.69;5057818;28;20428;-74
2022/11/01 01:24:28;;;;;;;8.52;2.58;;;;;;;-140.72;100.00;52833.22;5036347;28;20033;-74
2022/11/01 01:26:53;;;;;;;5.40;2.63;;;;;;;-140.72;100.00;52784.53;5037292;28;20026;-74
2022/11/01 01:29:18;;;;;;;5.82;2.90;;;;;;;-140.72;100.00;52808.88;5059602;28;20040;-74
2022/11/01 01:31:44;;;;;;;4.20;2.50;;;;;;;-140.72;100.00;52800.75;5062388;28;20464;-74
2022/11/01 01:34:09;;;;;;;5.20;3.38;;;;;;;-140.72;100.00;52762.22;5058653;28;20044;-74
2022/11/01 01:36:35;;;;;;;4.63;2.83;;;;;;;-140.72;100.00;52808.88;5059148;28;20029;-73
2022/11/01 01:39:00;;;;;;;5.93;2.92;;;;;;;-140.72;100.00;52808.88;5061506;28;20025;-73
2022/11/01 01:44:43;;;;;;;3.85;2.22;;;;;;;-140.72;100.00;52792.66;5058430;28;20038;-74
2022/11/01 01:47:13;;;;;;;4.10;2.80;;;;;;;-140.72;100.00;52796.72;5045032;28;20064;-74
2022/11/01 01:49:38;;;;;;;3.90;2.67;;;;;;;-140.72;100.00;52780.47;5046045;28;20025;-77
2022/11/01 01:52:04;;;;;;;5.70;3.15;;;;;;;-140.72;100.00;52806.84;5046624;28;20037;-76
2022/11/01 01:54:31;;;;;;;3.38;2.35;;;;;;;-140.72;100.00;52794.69;5049518;28;20044;-76
2022/11/01 01:56:57;;;;;;;5.20;2.83;;;;;;;-140.72;100.00;52752.06;5045687;28;20045;-76
2022/11/01 01:59:24;;;;;;;5.07;2.80;;;;;;;-140.72;100.00;52772.34;5058108;28;20093;-76
2022/11/01 02:01:49;;;;;;;4.70;2.70;;;;;;;-140.72;100.00;52772.34;5058399;28;20059;-75
2022/11/01 02:04:21;;;;;;;5.60;2.38;;;;;;;-140.72;100.00;52784.53;5063338;28;20063;-74
2022/11/01 02:06:47;;;;;;;4.18;2.50;;;;;;;-140.72;100.00;52796.72;5049949;28;20469;-74
2022/11/01 02:09:15;;;;;;;3.60;2.03;;;;;;;-140.72;100.00;52812.94;5058876;28;20063;-74
2022/11/01 02:11:40;;;;;;;6.75;2.80;;;;;;;-140.72;100.00;52798.72;5058492;28;20040;-74
2022/11/01 02:14:09;;;;;;;4.07;2.55;;;;;;;-140.72;100.00;52739.88;5053639;28;20388;-74
2022/11/01 02:16:47;;;;;;;5.13;1.75;;;;;;;-140.72;100.00;52752.06;5051936;28;20075;-74
2022/11/01 02:19:38;;;;;;;5.90;3.03;;;;;;;-140.72;100.00;52752.06;5059225;28;20032;-74
2022/11/01 02:22:24;;;;;;;8.90;2.30;;;;;;;-140.72;100.00;52760.19;5009714;28;20054;-74
2022/11/01 02:24:58;;;;;;;4.97;2.50;;;;;;;-140.72;100.00;52772.34;5046334;28;20033;-73
2022/11/01 02:27:29;;;;;;;6.18;2.20;;;;;;;-140.72;100.00;52743.94;5045540;28;20099;-77
2022/11/01 02:30:07;;;;;;;3.42;2.22;;;;;;;-140.72;100.00;52748.00;5047176;28;20556;-74
2022/11/01 02:33:10;;;;;;;3.50;2.05;;;;;;;-140.72;100.00;52770.31;5049291;28;20428;-73
2022/11/01 02:35:44;;;;;;;3.70;2.00;;;;;;;-140.72;100.00;52758.16;5043716;28;20046;-74
2022/11/01 02:38:34;;;;;;;7.13;1.80;;;;;;;-140.72;100.00;52792.66;5048575;28;20063;-73
2022/11/01 02:41:09;;;;;;;3.08;1.63;;;;;;;-140.72;100.00;52790.63;5049302;28;20033;-76
2022/11/01 02:43:56;;;;;;;3.08;1.35;;;;;;;-140.72;100.00;52745.97;5049949;28;20033;-73
2022/11/01 02:49:09;;;;;;;1.77;1.17;;;;;;;-140.72;100.00;52776.41;5047240;28;20067;-76
2022/11/01 02:51:37;;;;;;;2.88;1.40;;;;;;;-140.72;100.00;52752.06;5051989;28;20060;-74
2022/11/01 02:54:07;;;;;;;2.72;1.00;;;;;;;-140.72;100.00;52762.22;5044185;28;20086;-74
2022/11/01 02:56:33;;;;;;;;;;;;;;;-140.72;100.00;52790.63;5045853;28;20071;-74
2022/11/01 02:58:59;;;;;;;1.73;0.65;;;;;;;-140.72;100.00;52778.44;5044410;28;19964;-74
2022/11/01 03:01:27;;;;;;;1.70;0.80;;;;;;;-140.72;100.00;52800.75;5052007;28;20487;-73
2022/11/01 03:03:56;;;;;;;1.48;0.82;;;;;;;-140.72;100.00;52817.00;5043070;28;20071;-74
2022/11/01 03:06:49;;;;;;;2.85;1.08;;;;;;;-140.72;100.00;52768.28;5049017;28;20028;-74
2022/11/01 03:09:15;;;;;;;2.38;0.60;;;;;;;-140.72;100.00;52784.53;5046390;28;20117;-77
2022/11/01 03:11:58;;;;;;;2.47;0.88;;;;;;;-140.72;100.00;52800.75;5051228;28;20116;-74
2022/11/01 03:14:23;;;;;;;2.83;0.75;;;;;;;-140.72;100.00;52768.28;5051857;28;20407;-74
2022/11/01 03:17:01;;;;;;;1.95;0.60;;;;;;;-140.72;100.00;52774.38;5051978;28;20205;-73
2022/11/01 03:19:51;;;;;;;2.08;0.63;;;;;;;-140.72;100.00;52808.88;5046276;28;20205;-72
2022/11/01 03:22:51;;;;;;;0.95;0.57;;;;;;;-140.72;100.00;52758.16;5051728;28;20041;-73
2022/11/01 03:25:38;;;;;;;2.17;0.50;;;;;;;-140.72;100.00;52784.53;5041102;28;20413;-72
2022/11/01 03:28:09;;;;;;;1.70;0.60;;;;;;;-140.72;100.00;52817.00;5052549;28;20037;-73
2022/11/01 03:30:41;;;;;;;0.80;0.32;;;;;;;-140.72;100.00;52817.00;5047440;28;20029;-73
2022/11/01 03:33:09;;;;;;;0.80;0.30;;;;;;;-140.72;100.00;52835.25;5043257;28;20390;-73
2022/11/01 03:35:38;;;;;;;0.30;0.20;;;;;;;-140.72;100.00;52812.94;5047183;28;20088;-72
2022/11/01 03:38:08;;;;;;;0.50;0.30;;;;;;;-140.72;100.00;52792.66;5040672;28;20056;-74
2022/11/01 03:40:36;;;;;;;0.85;0.38;;;;;;;-140.72;100.00;52796.72;5051910;28;20115;-74
2022/11/01 03:43:06;;;;;;;0.20;0.20;;;;;;;-140.72;100.00;52845.41;5050456;28;20037;-76
2022/11/01 03:45:34;;;;;;;1.77;0.63;;;;;;;-140.72;100.00;52829.19;5051857;28;20025;-77
2022/11/01 03:48:04;;;;;;;0.45;0.25;;;;;;;-140.72;100.00;52873.81;5050084;28;20108;-74
2022/11/01 03:50:32;;;;;;;;;;;;;;;-140.72;100.00;52786.56;5050645;28;20404;-73
2022/11/01 03:52:58;;;;;;;0.50;0.28;;;;;;;-140.72;100.00;52792.66;5049608;28;19943;-75
2022/11/01 03:55:25;;;;;;;2.83;0.63;;;;;;;-140.72;100.00;52857.59;5050558;28;20025;-73
2022/11/01 03:57:53;;;;;;;1.77;0.40;;;;;;;-140.72;100.00;52798.72;5048265;28;20459;-73
2022/11/01 04:00:26;;;;;;;0.82;0.40;;;;;;;-140.72;100.00;52841.34;5043227;28;20055;-73
2022/11/01 04:02:53;;;;;;;1.27;0.50;;;;;;;-140.72;100.00;52829.19;5049816;28;20380;-75
2022/11/01 04:05:20;;;;;;;1.85;0.70;;;;;;;-140.72;100.00;52812.94;5050869;28;20420;-74
2022/11/01 04:07:46;;;;;;;1.73;0.40;;;;;;;-140.72;100.00;52800.75;5057277;28;20025;-77
2022/11/01 04:10:12;;;;;;;1.05;0.38;;;;;;;-140.72;100.00;52835.25;5042575;28;20115;-76
2022/11/01 04:12:38;;;;;;;1.08;0.45;;;;;;;-140.72;100.00;52845.41;5042181;28;20029;-73
2022/11/01 04:21:05;;;;;;;3.28;0.80;;;;;;;-140.72;100.00;52849.47;5043561;28;20549;-74
2022/11/01 04:23:32;;;;;;;0.45;0.30;;;;;;;-140.72;100.00;52804.81;5037850;28;20037;-73
2022/11/01 04:25:58;;;;;;;0.98;0.47;;;;;;;-140.72;100.00;52794.69;5039036;28;20370;-73
2022/11/01 04:28:24;;;;;;;2.50;0.43;;;;;;;-140.72;100.00;52825.13;5043401;28;20120;-74
2022/11/01 04:30:49;;;;;;;5.18;1.08;;;;;;;-140.72;100.00;52857.59;5044628;28;20086;-74
2022/11/01 04:33:15;;;;;;;0.95;0.30;;;;;;;-140.72;100.00;52833.22;5041851;28;20056;-73
2022/11/01 04:35:40;;;;;;;0.75;0.30;;;;;;;-140.72;100.00;52814.97;5040690;28;20064;-75
2022/11/01 04:38:05;;;;;;;2.22;0.45;;;;;;;-140.72;100.00;52833.22;5034632;28;20052;-72
2022/11/01 04:40:33;;;;;;;2.58;0.45;;;;;;;-140.72;100.00;52867.72;5036126;28;20034;-73
2022/11/01 04:42:58;;;;;;;3.75;0.45;;;;;;;-140.72;100.00;52879.91;5038414;28;20032;-72
2022/11/01 04:45:27;;;;;;;2.25;0.32;;;;;;;-140.72;100.00;52890.06;5043431;28;20025;-73
2022/11/01 04:48:12;;;;;;;0.75;0.40;;;;;;;-140.72;100.00;52883.97;5040397;28;20056;-73
2022/11/01 04:50:39;;;;;;;4.90;0.63;;;;;;;-140.72;100.00;52865.69;5041524;28;20037;-76
2022/11/01 04:53:05;;;;;;;1.13;0.43;;;;;;;-140.72;100.00;52898.16;5047573;28;20026;-73
2022/11/01 04:55:30;;;;;;;1.90;0.57;;;;;;;-140.72;100.00;52837.28;5043352;28;20055;-73
2022/11/01 04:57:56;;;;;;;4.07;0.60;;;;;;;-140.72;100.00;52869.75;5042583;28;20026;-74
2022/11/01 05:00:22;;;;;;;3.08;0.75;;;;;;;-140.72;100.00;52861.66;5052393;28;20044;-73
2022/11/01 05:02:48;;;;;;;1.65;0.55;;;;;;;-140.72;100.00;52849.47;5051138;28;20036;-73
2022/11/01 05:05:15;;;;;;;2.38;0.45;;;;;;;-140.72;100.00;52849.47;5056504;28;20410;-75
2022/11/01 05:07:40;;;;;;;2.70;0.45;;;;;;;-140.72;100.00;52886.00;5048793;28;20025;-73
2022/11/01 05:10:07;;;;;;;4.03;0.68;;;;;;;-140.72;100.00;52912.38;5043114;28;20032;-74
2022/11/01 05:12:33;;;;;;;3.67;1.00;;;;;;;-140.72;100.00;52881.94;5043120;28;20037;-73
2022/11/01 05:14:58;;;;;;;4.40;0.70;;;;;;;-140.72;100.00;52841.34;5042642;28;20099;-74
2022/11/01 05:17:23;;;;;;;1.55;0.40;;;;;;;-140.72;100.00;52863.66;5053454;28;20496;-74
2022/11/01 05:19:49;;;;;;;3.05;0.52;;;;;;;-140.72;100.00;52841.34;5047202;28;20429;-72
2022/11/01 05:22:14;;;;;;;0.65;0.32;;;;;;;-140.72;100.00;52875.84;5040066;28;20036;-73
2022/11/01 05:24:40;;;;;;;4.95;1.27;;;;;;;-140.72;100.00;52900.19;5049346;28;20425;-73
2022/11/01 05:27:05;;;;;;;1.60;0.70;;;;;;;-140.72;100.00;52888.03;5039457;28;20040;-73
2022/11/01 05:29:30;;;;;;;2.97;0.55;;;;;;;-140.72;100.00;52861.66;5036620;28;20087;-73
2022/11/01 05:31:56;;;;;;;10.93;1.23;;;;;;;-140.72;100.00;52859.63;5043005;28;20395;-72
2022/11/01 05:34:21;;;;;;;2.85;0.60;;;;;;;-140.72;100.00;52833.22;5042727;28;20469;-74
2022/11/01 05:36:47;;;;;;;5.50;0.90;;;;;;;-140.72;100.00;52837.28;5040789;28;20025;-73
2022/11/01 05:39:12;;;;;;;3.63;0.95;;;;;;;-140.72;100.00;52833.22;5037412;28;20496;-74
2022/11/01 05:41:39;;;;;;;2.55;1.20;;;;;;;-140.72;100.00;52865.69;5039117;28;20432;-74
2022/11/01 05:44:05;;;;;;;1.65;0.70;;;;;;;-140.72;100.00;52873.81;5041641;28;20025;-73
2022/11/01 05:46:30;;;;;;;3.47;1.58;;;;;;;-140.72;100.00;52837.28;5048688;28;20475;-72
2022/11/01 05:48:55;;;;;;;1.38;0.50;;;;;;;-140.72;100.00;52823.09;5051375;28;20037;-73
2022/11/01 05:51:21;;;;;;;2.80;0.55;;;;;;;-140.72;100.00;52847.44;5042697;28;20107;-73
2022/11/01 05:53:48;;;;;;;8.90;0.75;;;;;;;-140.72;100.00;52835.25;5044993;28;20033;-72
2022/11/01 05:56:14;;;;;;;7.35;1.52;;;;;;;-140.72;100.00;52902.22;5039212;28;20029;-73
2022/11/01 05:58:39;;;;;;;6.28;0.70;;;;;;;-140.72;100.00;52849.47;5055235;28;20040;-70
2022/11/01 06:01:06;;;;;;;4.43;1.05;;;;;;;-140.72;100.00;52808.88;5051838;28;20365;-72
2022/11/01 06:03:31;;;;;;;1.45;0.60;;;;;;;-140.72;100.00;52855.56;5050289;28;20037;-72
2022/11/01 06:05:57;;;;;;;6.07;0.63;;;;;;;-140.72;100.00;52845.41;5045568;28;20390;-71
2022/11/01 06:08:23;;;;;;;2.63;0.63;;;;;;;-140.72;100.00;52857.59;5047057;28;20044;-73
2022/11/01 06:10:49;;;;;;;5.28;1.65;;;;;;;-140.72;100.00;52869.75;5047404;28;20025;-72
2022/11/01 06:13:14;;;;;;;5.22;1.58;;;;;;;-140.72;100.00;52869.75;5038054;28;20037;-74
2022/11/01 06:15:40;;;;;;;6.47;1.33;;;;;;;-140.72;100.00;52869.75;5035331;28;20036;-72
2022/11/01 06:18:06;;;;;;;2.90;0.73;;;;;;;-140.72;100.00;52823.09;5038495;28;20029;-73
2022/11/01 06:20:32;;;;;;;2.72;0.70;;;;;;;-140.72;100.00;52861.66;5040616;28;20033;-74
2022/11/01 06:22:58;;;;;;;2.05;0.70;;;;;;;-140.72;100.00;52869.75;5034656;28;20040;-74
2022/11/01 06:25:27;;;;;;;7.47;1.95;;;;;;;-140.72;100.00;52861.66;5035448;28;20040;-73
2022/11/01 06:27:53;;;;;;;4.27;1.10;;;;;;;-140.72;100.00;52875.84;5036522;28;20120;-73
2022/11/01 06:30:19;;;;;;;5.20;1.00;;;;;;;-140.72;100.00;52859.63;5033470;28;20106;-74
2022/11/01 06:32:45;;;;;;;4.43;0.75;;;;;;;-140.72;100.00;52879.91;5044614;28;20029;-73
2022/11/01 06:35:11;;;;;;;1.42;0.47;;;;;;;-140.72;100.00;52877.88;5044470;28;20076;-73
2022/11/01 06:37:37;;;;;;;2.15;0.88;;;;;;;-140.72;100.00;52837.28;5047895;28;20106;-72
2022/11/01 06:40:04;;;;;;;5.40;1.88;;;;;;;-140.72;100.00;52857.59;5043012;28;20650;-72
2022/11/01 06:42:32;;;;;;;3.75;0.65;;;;;;;-140.72;100.00;52865.69;5043161;28;20108;-72
2022/11/01 06:44:57;;;;;;;5.75;1.05;;;;;;;-140.72;100.00;52900.19;5034891;28;20107;-73
2022/11/01 06:47:23;;;;;;;6.65;1.10;;;;;;;-140.72;100.00;52863.66;5028806;28;20043;-73
2022/11/01 06:49:49;;;;;;;4.22;0.95;;;;;;;-140.72;100.00;52877.88;5038517;28;20113;-73
2022/11/01 06:52:14;;;;;;;3.85;1.17;;;;;;;-140.72;100.00;52924.56;5033622;28;20440;-73
2022/11/01 06:54:39;;;;;;;2.47;1.08;;;;;;;-140.72;100.00;52888.03;5038845;28;20041;-73
2022/11/01 06:57:05;;;;;;;2.83;0.82;;;;;;;-140.72;100.00;52849.47;5018451;28;20421;-73
2022/11/01 06:59:31;;;;;;;4.00;1.13;;;;;;;-140.72;100.00;52847.44;5035102;28;20032;-73
2022/11/01 07:01:57;;;;;;;3.15;0.98;;;;;;;-140.72;100.00;52855.56;5037373;28;20024;-73
2022/11/01 07:04:22;;;;;;;2.50;0.68;;;;;;;-140.72;100.00;52867.72;5041880;28;20492;-71
2022/11/01 07:06:48;;;;;;;5.97;0.90;;;;;;;-140.72;100.00;52873.81;5044873;28;20467;-73
2022/11/01 07:09:13;;;;;;;1.88;0.82;;;;;;;-140.72;100.00;52873.81;5047222;28;20065;-74
2022/11/01 07:11:39;;;;;;;3.95;1.40;;;;;;;-140.72;100.00;52865.69;5047406;28;20021;-72
2022/11/01 07:14:05;;;;;;;4.80;0.80;;;;;;;-140.72;100.00;52906.28;5054446;28;20112;-73
2022/11/01 07:16:31;;;;;;;5.10;0.73;;;;;;;-140.72;100.00;52890.06;5052439;28;20025;-73
2022/11/01 07:18:57;;;;;;;6.28;1.10;;;;;;;-140.72;100.00;52865.69;5054526;28;20086;-72
2022/11/01 07:21:23;;;;;;;4.85;1.08;;;;;;;-140.72;100.00;52861.66;5063100;28;20028;-73
2022/11/01 07:23:48;;;;;;;2.08;0.68;;;;;;;-140.72;100.00;52861.66;5055337;28;20036;-73
2022/11/01 07:26:13;;;;;;;2.92;0.88;;;;;;;-140.72;100.00;52841.34;5059793;28;20021;-73
2022/11/01 07:28:42;;;;;;;3.67;1.17;;;;;;;-140.72;100.00;52857.59;5044040;28;20079;-73
2022/11/01 07:31:07;;;;;;;2.33;0.55;;;;;;;-140.72;100.00;52875.84;5053307;28;20031;-72
2022/11/01 07:33:33;;;;;;;8.60;1.98;;;;;;;-140.72;100.00;52890.06;5051773;28;20021;-73
2022/11/01 07:35:59;;;;;;;4.32;1.13;;;;;;;-140.72;100.00;52877.88;5056391;28;20028;-72
2022/11/01 07:38:25;;;;;;;6.13;0.60;;;;;;;-140.72;100.00;52877.88;5047152;28;20123;-73
2022/11/01 07:40:53;;;;;;;3.03;1.27;;;;;;;-140.72;100.00;52855.56;5056885;28;20427;-72
2022/11/01 07:43:20;;;;;;;3.90;1.17;;;;;;;-140.72;100.00;52829.19;5062774;28;20119;-72
2022/11/01 07:45:45;;;;;;;2.17;0.50;;;;;;;-140.72;100.00;52879.91;5053180;28;20024;-73
2022/11/01 07:48:13;;;;;;;2.17;0.70;;;;;;;-140.72;100.00;52841.34;5061586;28;20057;-73
2022/11/01 07:50:40;;;;;;;2.42;0.80;;;;;;;-140.72;100.00;52823.09;5071177;28;20024;-72
2022/11/01 07:53:11;;;;;;;8.75;1.05;;;;;;;-140.72;100.00;52814.97;5071010;28;20445;-73
2022/11/01 07:55:37;;;;;;;4.30;1.25;;;;;;;-140.72;100.00;52869.75;5066457;28;20092;-72
2022/11/01 07:58:03;;;;;;;3.33;0.65;;;;;;;-140.72;100.00;52892.09;5051599;28;20044;-73
2022/11/01 08:00:30;;;;;;;2.67;0.90;;;;;;;-140.72;100.00;52857.59;5040478;28;20029;-73
2022/11/01 08:03:04;;;;;;;4.05;1.08;;;;;;;-140.72;100.00;52827.16;5035413;28;20024;-73
2022/11/01 08:05:30;;;;;;;2.95;1.08;;;;;;;-140.72;100.00;52814.97;5051625;28;20068;-72
2022/11/01 08:07:56;;;;;;;4.57;0.95;;;;;;;-140.72;100.00;52867.72;5050514;28;20024;-73
2022/11/01 08:10:22;;;;;;;7.68;0.80;;;;;;;-140.72;100.00;52867.72;5051886;28;20453;-73
2022/11/01 08:12:47;;;;;;;3.85;1.20;;;;;;;-140.72;100.00;52867.72;5050933;28;20466;-72
2022/11/01 08:15:15;;;;;;;2.38;0.90;;;;;;;-140.72;100.00;52859.63;5050714;28;20036;-72
2022/11/01 08:17:41;;;;;;;5.47;1.30;;;;;;;-140.72;100.00;52865.69;5050812;28;20397;-74
2022/11/01 08:20:07;;;;;;;5.60;1.17;;;;;;;-140.72;100.00;52865.69;5063196;28;20052;-72
2022/11/01 08:22:32;;;;;;;2.67;0.60;;;;;;;-140.72;100.00;52886.00;5044042;28;20112;-74
2022/11/01 08:24:58;;;;;;;6.78;1.02;;;;;;;-140.72;100.00;52879.91;5057030;28;20031;-74
2022/11/01 08:27:23;;;;;;;3.45;0.90;;;;;;;-140.72;100.00;52857.59;5045165;28;20080;-74
2022/11/01 08:29:49;;;;;;;6.22;1.42;;;;;;;-140.72;100.00;52869.75;5055254;28;20017;-73
2022/11/01 08:32:18;;;;;;;9.07;1.17;;;;;;;-140.72;100.00;52871.78;5043415;28;20440;-73
2022/11/01 08:34:44;;;;;;;;;;;;;;;-140.72;100.00;52827.16;5049996;28;20041;-75
2022/11/01 08:37:09;;;;;;;3.08;0.75;;;;;;;-140.72;100.00;52845.41;5050078;28;19920;-72
2022/11/01 08:39:34;;;;;;;4.63;1.83;;;;;;;-140.72;100.00;52886.00;5052256;28;20021;-73
2022/11/01 08:42:00;;;;;;;2.30;0.70;;;;;;;-140.72;100.00;52855.56;5048804;28;20028;-71
2022/11/01 08:44:25;;;;;;;2.90;0.73;;;;;;;-140.72;100.00;52845.41;5048912;28;20025;-72
2022/11/01 08:46:53;;;;;;;4.72;2.08;;;;;;;-140.72;100.00;52861.66;5049404;28;20032;-72
2022/11/01 08:49:19;;;;;;;7.25;1.25;;;;;;;-140.72;100.00;52825.13;5051372;28;20029;-74
2022/11/01 08:51:44;;;;;;;4.20;0.82;;;;;;;-140.72;100.00;52855.56;5049005;28;20025;-75
2022/11/01 08:54:11;;;;;;;5.00;1.17;;;;;;;-140.72;100.00;52827.16;5049237;28;20067;-72
2022/11/01 08:56:36;;;;;;;5.68;0.82;;;;;;;-140.72;100.00;52833.22;5049697;28;20021;-73
2022/11/01 08:59:01;;;;;;;6.65;1.13;;;;;;;-140.72;100.00;52886.00;5050633;28;20029;-72
2022/11/01 09:01:27;;;;;;;5.13;0.98;;;;;;;-140.72;100.00;52879.91;5037013;28;20370;-74
2022/11/01 09:03:57;;;;;;;8.77;0.90;;;;;;;-140.72;100.00;52821.06;5058923;28;20094;-73
2022/11/01 09:06:23;;;;;;;5.43;1.20;;;;;;;-140.72;100.00;52849.47;5034647;28;20035;-73
2022/11/01 09:08:49;;;;;;;9.43;1.05;;;;;;;-140.72;100.00;52845.41;5043380;28;20274;-73
2022/11/01 09:11:15;;;;;;;9.93;1.92;;;;;;;-140.72;100.00;52819.03;5060949;28;20027;-74
2022/11/01 09:13:40;;;;;;;3.30;1.23;;;;;;;-140.72;100.00;52814.97;5061946;28;20036;-73
2022/11/01 09:16:06;;;;;;;5.50;1.40;;;;;;;-140.72;100.00;52863.66;5067007;28;20103;-74
2022/11/01 09:18:32;;;;;;;6.28;1.58;;;;;;;-140.72;100.00;52792.66;5056132;28;20461;-73
2022/11/01 09:20:57;;;;;;;5.63;0.88;;;;;;;-140.72;100.00;52861.66;5042688;28;20033;-73
2022/11/01 09:23:23;;;;;;;6.88;0.98;;;;;;;-140.72;100.00;52849.47;5069394;28;20028;-72
2022/11/01 09:25:48;;;;;;;9.25;1.02;;;;;;;-140.72;100.00;52849.47;5068293;28;20060;-73
2022/11/01 09:28:14;;;;;;;9.48;1.73;;;;;;;-140.72;100.00;52853.53;5069194;28;20059;-73
2022/11/01 09:30:39;;;;;;;2.90;1.02;;;;;;;-140.72;100.00;52819.03;5061820;28;20067;-74
2022/11/01 09:33:06;;;;;;;7.15;1.20;;;;;;;-140.72;100.00;52829.19;5049640;28;20434;-74
2022/11/01 09:35:32;;;;;;;1.33;0.77;;;;;;;-140.72;100.00;52812.94;5055687;28;20049;-73
2022/11/01 09:37:58;;;;;;;7.18;1.30;;;;;;;-140.72;100.00;52798.72;5043095;28;20036;-74
2022/11/01 09:40:27;;;;;;;6.97;1.60;;;;;;;-140.72;100.00;52853.53;5037091;28;20036;-75
2022/11/01 09:42:53;;;;;;;5.15;1.23;;;;;;;-140.72;100.00;52804.81;5061381;28;20036;-74
2022/11/01 09:45:21;;;;;;;2.13;0.82;;;;;;;-140.72;100.00;52829.19;5045223;28;20066;-74
2022/11/01 09:47:51;;;;;;;2.05;0.93;;;;;;;-140.72;100.00;52806.84;5049929;28;20477;-74
2022/11/01 09:50:38;;;;;;;5.13;1.45;;;;;;;-140.72;100.00;52853.53;5049658;28;20213;-73
2022/11/01 09:53:14;;;;;;;4.57;1.45;;;;;;;-140.72;100.00;52810.91;5049472;28;20025;-76
2022/11/01 09:55:53;;;;;;;3.95;1.10;;;;;;;-140.72;100.00;52794.69;5049157;28;20107;-75
2022/11/01 09:58:34;;;;;;;6.20;1.52;;;;;;;-140.72;100.00;52796.72;5049542;28;20094;-75
2022/11/01 10:01:25;;;;;;;4.07;1.02;;;;;;;-140.72;100.00;52800.75;5049160;28;20534;-76
2022/11/01 10:04:00;;;;;;;4.13;1.10;;;;;;;-140.72;100.00;52800.75;5049513;28;20052;-75
2022/11/01 10:06:35;;;;;;;3.92;1.00;;;;;;;-140.72;100.00;52774.38;5048967;28;20366;-74
2022/11/01 10:09:42;;;;;;;3.97;1.08;;;;;;;-140.72;100.00;52778.44;5050444;28;20111;-75
2022/11/01 10:12:48;;;;;;;2.90;0.82;;;;;;;-140.72;100.00;52796.72;5043055;28;20470;-75
2022/11/01 10:15:27;;;;;;;4.63;0.95;;;;;;;-140.72;100.00;52780.47;5027809;28;20041;-75
2022/11/01 10:17:55;;;;;;;3.20;1.30;;;;;;;-140.72;100.00;52792.66;5044100;28;20396;-75
2022/11/01 10:20:26;;;;;;;5.13;1.35;;;;;;;-140.72;100.00;52796.72;5053235;28;20108;-74
2022/11/01 10:22:51;;;;;;;2.47;1.00;;;;;;;-140.72;100.00;52780.47;5041572;28;20045;-76
2022/11/01 10:25:21;;;;;;;3.40;0.88;;;;;;;-140.72;100.00;52794.69;5055831;28;20484;-75
2022/11/01 10:27:51;;;;;;;;;;;;;;;-140.72;100.00;52796.72;5031819;28;20028;-75
2022/11/01 10:30:17;;;;;;;2.35;0.68;;;;;;;-140.72;100.00;52804.81;5033461;28;19956;-76
2022/11/01 10:33:21;;;;;;;1.85;1.05;;;;;;;-140.72;100.00;52800.75;5049116;28;20032;-75
2022/11/01 10:35:53;;;;;;;7.43;1.35;;;;;;;-140.72;100.00;52782.50;4997470;28;20037;-75
2022/11/01 10:38:35;;;;;;;5.78;1.42;;;;;;;-140.72;100.00;52780.47;5049299;28;20033;-75
2022/11/01 10:41:18;;;;;;;3.08;1.05;;;;;;;-140.72;100.00;52778.44;5048555;28;20063;-76
2022/11/01 10:43:48;;;;;;;3.15;0.80;;;;;;;-140.72;100.00;52743.94;5049296;28;20025;-74
2022/11/01 10:46:18;;;;;;;2.70;0.80;;;;;;;-140.72;100.00;52776.41;5048925;28;20385;-76
2022/11/01 10:48:49;;;;;;;8.52;1.25;;;;;;;-140.72;100.00;52764.25;5036359;28;20033;-75
2022/11/01 10:51:19;;;;;;;7.40;1.15;;;;;;;-140.72;100.00;52776.41;5049673;28;20103;-74
2022/11/01 10:53:49;;;;;;;3.90;1.35;;;;;;;-140.72;100.00;52778.44;5042152;28;20112;-74
2022/11/01 10:56:19;;;;;;;7.60;1.10;;;;;;;-140.72;100.00;52780.47;5044576;28;20060;-75
2022/11/01 10:59:39;;;;;;;5.47;0.80;;;;;;;-140.72;100.00;52764.25;5052786;28;20116;-75
2022/11/01 11:02:14;;;;;;;4.40;0.70;;;;;;;-140.72;100.00;52752.06;4970690;28;20144;-74
2022/11/01 11:04:39;;;;;;;3.75;1.08;;;;;;;-140.72;100.00;52737.84;4971061;28;20507;-75
2022/11/01 11:07:12;;;;;;;3.50;1.35;;;;;;;-140.72;100.00;52733.78;5023243;28;20090;-75
2022/11/01 11:09:37;;;;;;;4.25;1.02;;;;;;;-140.72;100.00;52764.25;5053123;28;20554;-74
2022/11/01 11:12:11;;;;;;;4.45;1.00;;;;;;;-140.72;100.00;52727.72;5052859;28;20025;-73
2022/11/01 11:14:40;;;;;;;5.38;0.82;;;;;;;-140.72;100.00;52752.06;5052409;28;20025;-73
2022/11/01 11:17:18;;;;;;;1.85;0.90;;;;;;;-140.72;100.00;52685.09;5051118;28;20115;-74
2022/11/01 11:19:45;;;;;;;2.00;0.73;;;;;;;-140.72;100.00;52719.59;5052425;28;20021;-74
2022/11/01 11:22:12;;;;;;;3.53;1.02;;;;;;;-140.72;100.00;52721.63;5052243;28;20025;-74
2022/11/01 11:24:39;;;;;;;4.30;0.43;;;;;;;-140.72;100.00;52782.50;5051641;28;20108;-73
2022/11/01 11:27:32;;;;;;;4.90;1.00;;;;;;;-140.72;100.00;52737.84;5051772;28;20024;-74
2022/11/01 11:30:07;;;;;;;2.75;0.75;;;;;;;-140.72;100.00;52754.09;5047232;28;20245;-74